sensor_id;sensor_type;location;lat;lon;timestamp;pressure;altitude;pressure_sealevel;temperature;humidity
70254;BME280;57649;42.968;1.608;2023-12-20T00:00:12;98232.84;;;4.42;100.00
70254;BME280;57649;42.968;1.608;2023-12-20T00:02:38;98237.94;;;4.46;100.00
70254;BME280;57649;42.968;1.608;2023-12-20T00:05:04;98232.31;;;4.37;100.00
70254;BME280;57649;42.968;1.608;2023-12-20T00:07:29;98221.72;;;4.37;100.00
70254;BME280;57649;42.968;1.608;2023-12-20T00:09:55;98203.03;;;4.39;100.00
70254;BME280;57649;42.968;1.608;2023-12-20T00:12:20;98202.06;;;4.53;100.00
70254;BME280;57649;42.968;1.608;2023-12-20T00:14:45;98203.81;;;4.65;100.00
70254;BME280;57649;42.968;1.608;2023-12-20T00:17:11;98197.88;;;4.61;100.00
70254;BME280;57649;42.968;1.608;2023-12-20T00:19:36;98208.47;;;4.61;100.00
70254;BME280;57649;42.968;1.608;2023-12-20T00:22:02;98188.03;;;4.63;100.00
70254;BME280;57649;42.968;1.608;2023-12-20T00:24:27;98187.84;;;4.78;100.00
70254;BME280;57649;42.968;1.608;2023-12-20T00:26:53;98171.81;;;4.79;100.00
70254;BME280;57649;42.968;1.608;2023-12-20T00:29:18;98162.75;;;4.71;100.00
70254;BME280;57649;42.968;1.608;2023-12-20T00:31:43;98172.13;;;4.88;100.00
70254;BME280;57649;42.968;1.608;2023-12-20T00:34:09;98166.19;;;4.84;100.00
70254;BME280;57649;42.968;1.608;2023-12-20T00:36:34;98156.00;;;4.78;100.00
70254;BME280;57649;42.968;1.608;2023-12-20T00:39:00;98160.47;;;4.77;100.00
70254;BME280;57649;42.968;1.608;2023-12-20T00:41:25;98167.38;;;4.80;100.00
70254;BME280;57649;42.968;1.608;2023-12-20T00:43:51;98175.19;;;4.81;100.00
70254;BME280;57649;42.968;1.608;2023-12-20T00:46:16;98170.25;;;4.77;100.00
70254;BME280;57649;42.968;1.608;2023-12-20T00:48:41;98161.94;;;4.81;100.00
70254;BME280;57649;42.968;1.608;2023-12-20T00:51:07;98155.72;;;4.94;100.00
70254;BME280;57649;42.968;1.608;2023-12-20T00:53:33;98159.28;;;5.06;100.00
70254;BME280;57649;42.968;1.608;2023-12-20T00:55:58;98141.81;;;5.14;100.00
70254;BME280;57649;42.968;1.608;2023-12-20T00:58:24;98145.69;;;5.21;100.00
70254;BME280;57649;42.968;1.608;2023-12-20T01:00:49;98148.09;;;5.13;100.00
70254;BME280;57649;42.968;1.608;2023-12-20T01:03:14;98139.84;;;5.05;100.00
70254;BME280;57649;42.968;1.608;2023-12-20T01:05:40;98123.81;;;5.07;100.00
70254;BME280;57649;42.968;1.608;2023-12-20T01:08:06;98113.69;;;5.00;100.00
70254;BME280;57649;42.968;1.608;2023-12-20T01:10:31;98106.78;;;4.98;100.00
70254;BME280;57649;42.968;1.608;2023-12-20T01:12:57;98115.53;;;4.87;100.00
70254;BME280;57649;42.968;1.608;2023-12-20T01:15:22;98120.75;;;5.00;100.00
70254;BME280;57649;42.968;1.608;2023-12-20T01:17:48;98105.59;;;5.02;100.00
70254;BME280;57649;42.968;1.608;2023-12-20T01:20:14;98095.22;;;4.99;100.00
70254;BME280;57649;42.968;1.608;2023-12-20T01:22:40;98108.19;;;4.91;100.00
70254;BME280;57649;42.968;1.608;2023-12-20T01:25:08;98117.66;;;5.06;100.00
70254;BME280;57649;42.968;1.608;2023-12-20T01:27:33;98091.13;;;5.06;100.00
70254;BME280;57649;42.968;1.608;2023-12-20T01:29:58;98087.16;;;5.12;100.00
70254;BME280;57649;42.968;1.608;2023-12-20T01:32:24;98084.75;;;5.20;100.00
70254;BME280;57649;42.968;1.608;2023-12-20T01:34:49;98056.53;;;5.19;100.00
70254;BME280;57649;42.968;1.608;2023-12-20T01:37:16;98049.91;;;5.25;100.00
70254;BME280;57649;42.968;1.608;2023-12-20T01:39:41;98052.34;;;5.28;100.00
70254;BME280;57649;42.968;1.608;2023-12-20T01:42:07;98056.91;;;5.26;100.00
70254;BME280;57649;42.968;1.608;2023-12-20T01:44:32;98046.75;;;5.31;100.00
70254;BME280;57649;42.968;1.608;2023-12-20T01:46:57;98040.00;;;5.38;100.00
70254;BME280;57649;42.968;1.608;2023-12-20T01:49:23;98048.47;;;5.43;100.00
70254;BME280;57649;42.968;1.608;2023-12-20T01:51:50;98038.34;;;5.37;100.00
70254;BME280;57649;42.968;1.608;2023-12-20T01:54:15;98057.28;;;5.55;100.00
70254;BME280;57649;42.968;1.608;2023-12-20T01:56:41;98062.97;;;5.62;99.78
70254;BME280;57649;42.968;1.608;2023-12-20T01:59:07;98065.50;;;5.63;99.31
70254;BME280;57649;42.968;1.608;2023-12-20T02:01:34;98068.16;;;5.63;98.98
70254;BME280;57649;42.968;1.608;2023-12-20T02:04:01;98068.03;;;5.76;98.53
70254;BME280;57649;42.968;1.608;2023-12-20T02:06:29;98074.44;;;5.73;98.91
70254;BME280;57649;42.968;1.608;2023-12-20T02:08:55;98059.81;;;5.68;98.16
70254;BME280;57649;42.968;1.608;2023-12-20T02:11:22;98068.38;;;5.71;97.93
70254;BME280;57649;42.968;1.608;2023-12-20T02:13:47;98072.75;;;5.72;97.72
70254;BME280;57649;42.968;1.608;2023-12-20T02:16:13;98055.09;;;5.49;98.66
70254;BME280;57649;42.968;1.608;2023-12-20T02:18:39;98055.47;;;5.55;98.56
70254;BME280;57649;42.968;1.608;2023-12-20T02:21:09;98053.44;;;5.48;100.00
70254;BME280;57649;42.968;1.608;2023-12-20T02:23:34;98044.59;;;5.36;100.00
70254;BME280;57649;42.968;1.608;2023-12-20T02:26:00;98038.69;;;5.32;100.00
70254;BME280;57649;42.968;1.608;2023-12-20T02:28:25;98032.03;;;5.38;100.00
70254;BME280;57649;42.968;1.608;2023-12-20T02:30:51;98018.91;;;5.59;99.28
70254;BME280;57649;42.968;1.608;2023-12-20T02:33:17;98027.81;;;5.69;98.76
70254;BME280;57649;42.968;1.608;2023-12-20T02:35:42;98011.88;;;5.58;99.54
70254;BME280;57649;42.968;1.608;2023-12-20T02:38:07;98000.78;;;5.64;99.65
70254;BME280;57649;42.968;1.608;2023-12-20T02:40:33;97990.41;;;5.61;100.00
70254;BME280;57649;42.968;1.608;2023-12-20T02:42:58;97982.31;;;5.63;100.00
70254;BME280;57649;42.968;1.608;2023-12-20T02:45:24;97983.19;;;5.52;100.00
70254;BME280;57649;42.968;1.608;2023-12-20T02:47:49;97977.97;;;5.50;100.00
70254;BME280;57649;42.968;1.608;2023-12-20T02:50:15;97986.44;;;5.55;100.00
70254;BME280;57649;42.968;1.608;2023-12-20T02:52:42;97983.75;;;5.67;100.00
70254;BME280;57649;42.968;1.608;2023-12-20T02:55:08;97969.13;;;5.72;100.00
70254;BME280;57649;42.968;1.608;2023-12-20T02:57:33;97970.56;;;5.76;99.87
70254;BME280;57649;42.968;1.608;2023-12-20T03:00:01;97953.19;;;5.72;100.00
70254;BME280;57649;42.968;1.608;2023-12-20T03:02:26;97969.22;;;5.82;100.00
70254;BME280;57649;42.968;1.608;2023-12-20T03:04:52;97954.28;;;5.81;100.00
70254;BME280;57649;42.968;1.608;2023-12-20T03:07:17;97960.19;;;5.85;100.00
70254;BME280;57649;42.968;1.608;2023-12-20T03:09:43;97950.75;;;5.81;100.00
70254;BME280;57649;42.968;1.608;2023-12-20T03:12:08;97954.28;;;5.81;100.00
70254;BME280;57649;42.968;1.608;2023-12-20T03:14:33;97966.56;;;5.82;100.00
70254;BME280;57649;42.968;1.608;2023-12-20T03:16:59;97952.09;;;5.86;100.00
70254;BME280;57649;42.968;1.608;2023-12-20T03:19:24;97952.78;;;6.00;100.00
70254;BME280;57649;42.968;1.608;2023-12-20T03:21:50;97957.13;;;5.89;100.00
70254;BME280;57649;42.968;1.608;2023-12-20T03:24:15;97963.56;;;5.87;100.00
70254;BME280;57649;42.968;1.608;2023-12-20T03:26:41;97963.25;;;5.57;100.00
70254;BME280;57649;42.968;1.608;2023-12-20T03:29:06;97951.06;;;5.44;100.00
70254;BME280;57649;42.968;1.608;2023-12-20T03:31:32;97956.25;;;5.45;100.00
70254;BME280;57649;42.968;1.608;2023-12-20T03:33:57;97962.78;;;5.30;100.00
70254;BME280;57649;42.968;1.608;2023-12-20T03:36:23;97961.09;;;5.17;100.00
70254;BME280;57649;42.968;1.608;2023-12-20T03:38:48;97963.75;;;5.06;100.00
70254;BME280;57649;42.968;1.608;2023-12-20T03:41:13;97964.09;;;5.13;100.00
70254;BME280;57649;42.968;1.608;2023-12-20T03:43:39;97957.13;;;5.12;100.00
70254;BME280;57649;42.968;1.608;2023-12-20T03:46:05;97950.38;;;5.08;100.00
70254;BME280;57649;42.968;1.608;2023-12-20T03:48:31;97945.41;;;5.14;100.00
70254;BME280;57649;42.968;1.608;2023-12-20T03:50:57;97942.53;;;5.06;100.00
70254;BME280;57649;42.968;1.608;2023-12-20T03:53:22;97948.31;;;5.11;100.00
70254;BME280;57649;42.968;1.608;2023-12-20T03:55:47;97939.38;;;5.01;100.00
70254;BME280;57649;42.968;1.608;2023-12-20T03:58:13;97934.19;;;5.11;100.00
70254;BME280;57649;42.968;1.608;2023-12-20T04:00:38;97936.72;;;5.24;100.00
70254;BME280;57649;42.968;1.608;2023-12-20T04:03:04;97948.06;;;5.14;100.00
70254;BME280;57649;42.968;1.608;2023-12-20T04:05:29;97961.31;;;5.14;100.00
70254;BME280;57649;42.968;1.608;2023-12-20T04:07:55;97960.00;;;5.09;100.00
70254;BME280;57649;42.968;1.608;2023-12-20T04:10:20;97953.25;;;5.16;100.00
70254;BME280;57649;42.968;1.608;2023-12-20T04:12:45;97953.25;;;5.16;100.00
70254;BME280;57649;42.968;1.608;2023-12-20T04:15:11;97962.31;;;5.25;100.00
70254;BME280;57649;42.968;1.608;2023-12-20T04:17:37;97958.09;;;5.33;100.00
70254;BME280;57649;42.968;1.608;2023-12-20T04:20:02;97956.28;;;5.23;100.00
70254;BME280;57649;42.968;1.608;2023-12-20T04:22:28;97952.31;;;5.06;100.00
70254;BME280;57649;42.968;1.608;2023-12-20T04:24:53;97970.09;;;4.81;100.00
70254;BME280;57649;42.968;1.608;2023-12-20T04:27:19;97956.09;;;4.56;100.00
70254;BME280;57649;42.968;1.608;2023-12-20T04:29:44;97968.00;;;4.51;100.00
70254;BME280;57649;42.968;1.608;2023-12-20T04:32:10;97967.38;;;4.47;100.00
70254;BME280;57649;42.968;1.608;2023-12-20T04:34:36;97942.13;;;4.30;100.00
70254;BME280;57649;42.968;1.608;2023-12-20T04:37:01;97946.72;;;4.39;100.00
70254;BME280;57649;42.968;1.608;2023-12-20T04:39:27;97941.59;;;4.49;100.00
70254;BME280;57649;42.968;1.608;2023-12-20T04:41:52;97940.72;;;4.49;100.00
70254;BME280;57649;42.968;1.608;2023-12-20T04:44:18;97941.50;;;4.51;100.00
70254;BME280;57649;42.968;1.608;2023-12-20T04:46:43;97934.16;;;4.54;100.00
70254;BME280;57649;42.968;1.608;2023-12-20T04:49:09;97931.41;;;4.67;100.00
70254;BME280;57649;42.968;1.608;2023-12-20T04:51:35;97942.63;;;4.82;100.00
70254;BME280;57649;42.968;1.608;2023-12-20T04:54:01;97927.66;;;4.81;100.00
70254;BME280;57649;42.968;1.608;2023-12-20T04:56:27;97923.69;;;4.75;100.00
70254;BME280;57649;42.968;1.608;2023-12-20T04:58:52;97910.41;;;4.75;100.00
70254;BME280;57649;42.968;1.608;2023-12-20T05:01:18;97919.59;;;4.82;100.00
70254;BME280;57649;42.968;1.608;2023-12-20T05:03:43;97914.41;;;4.81;100.00
70254;BME280;57649;42.968;1.608;2023-12-20T05:06:09;97922.97;;;4.85;100.00
70254;BME280;57649;42.968;1.608;2023-12-20T05:08:35;97926.34;;;4.87;100.00
70254;BME280;57649;42.968;1.608;2023-12-20T05:11:00;97921.03;;;4.75;100.00
70254;BME280;57649;42.968;1.608;2023-12-20T05:13:26;97924.63;;;4.74;100.00
70254;BME280;57649;42.968;1.608;2023-12-20T05:15:51;97932.34;;;4.77;100.00
70254;BME280;57649;42.968;1.608;2023-12-20T05:18:16;97928.03;;;4.76;100.00
70254;BME280;57649;42.968;1.608;2023-12-20T05:20:42;97939.59;;;4.75;100.00
70254;BME280;57649;42.968;1.608;2023-12-20T05:23:07;97951.41;;;4.60;100.00
70254;BME280;57649;42.968;1.608;2023-12-20T05:25:33;97948.25;;;4.55;100.00
70254;BME280;57649;42.968;1.608;2023-12-20T05:27:58;97957.66;;;4.59;100.00
70254;BME280;57649;42.968;1.608;2023-12-20T05:30:24;97968.38;;;4.57;100.00
70254;BME280;57649;42.968;1.608;2023-12-20T05:32:49;97957.41;;;4.62;100.00
70254;BME280;57649;42.968;1.608;2023-12-20T05:35:15;97966.31;;;4.61;100.00
70254;BME280;57649;42.968;1.608;2023-12-20T05:37:41;97976.81;;;4.62;100.00
70254;BME280;57649;42.968;1.608;2023-12-20T05:40:07;97982.97;;;4.63;100.00
70254;BME280;57649;42.968;1.608;2023-12-20T05:42:35;97970.41;;;4.54;100.00
70254;BME280;57649;42.968;1.608;2023-12-20T05:45:01;97966.28;;;4.50;100.00
70254;BME280;57649;42.968;1.608;2023-12-20T05:47:26;97987.66;;;4.59;100.00
70254;BME280;57649;42.968;1.608;2023-12-20T05:49:52;97969.81;;;4.61;100.00
70254;BME280;57649;42.968;1.608;2023-12-20T05:52:18;97978.81;;;4.48;100.00
70254;BME280;57649;42.968;1.608;2023-12-20T05:54:43;97991.88;;;4.51;100.00
70254;BME280;57649;42.968;1.608;2023-12-20T05:57:09;97982.72;;;4.66;100.00
70254;BME280;57649;42.968;1.608;2023-12-20T05:59:34;97985.28;;;4.68;100.00
70254;BME280;57649;42.968;1.608;2023-12-20T06:01:59;98002.53;;;4.73;100.00
70254;BME280;57649;42.968;1.608;2023-12-20T06:04:25;98007.81;;;4.62;100.00
70254;BME280;57649;42.968;1.608;2023-12-20T06:06:50;98000.06;;;4.59;100.00
70254;BME280;57649;42.968;1.608;2023-12-20T06:09:16;97995.59;;;4.59;100.00
70254;BME280;57649;42.968;1.608;2023-12-20T06:11:41;97991.63;;;4.65;100.00
70254;BME280;57649;42.968;1.608;2023-12-20T06:14:07;97996.84;;;4.78;100.00
70254;BME280;57649;42.968;1.608;2023-12-20T06:16:32;97982.97;;;4.74;100.00
70254;BME280;57649;42.968;1.608;2023-12-20T06:18:57;97996.53;;;4.82;100.00
70254;BME280;57649;42.968;1.608;2023-12-20T06:21:23;98010.00;;;4.79;100.00
70254;BME280;57649;42.968;1.608;2023-12-20T06:23:48;97986.25;;;4.78;100.00
70254;BME280;57649;42.968;1.608;2023-12-20T06:26:14;97987.84;;;4.80;100.00
70254;BME280;57649;42.968;1.608;2023-12-20T06:28:39;98010.63;;;4.83;100.00
70254;BME280;57649;42.968;1.608;2023-12-20T06:31:04;97997.47;;;4.81;100.00
70254;BME280;57649;42.968;1.608;2023-12-20T06:33:30;98001.13;;;4.92;100.00
70254;BME280;57649;42.968;1.608;2023-12-20T06:35:56;97988.56;;;4.82;100.00
70254;BME280;57649;42.968;1.608;2023-12-20T06:38:23;98013.19;;;5.07;100.00
70254;BME280;57649;42.968;1.608;2023-12-20T06:40:48;98000.06;;;5.17;100.00
70254;BME280;57649;42.968;1.608;2023-12-20T06:43:14;98009.59;;;5.08;100.00
70254;BME280;57649;42.968;1.608;2023-12-20T06:45:39;97992.22;;;5.04;100.00
70254;BME280;57649;42.968;1.608;2023-12-20T06:48:06;98005.97;;;5.09;100.00
70254;BME280;57649;42.968;1.608;2023-12-20T06:50:31;98009.81;;;5.05;100.00
70254;BME280;57649;42.968;1.608;2023-12-20T06:52:57;98022.47;;;5.01;100.00
70254;BME280;57649;42.968;1.608;2023-12-20T06:55:22;98017.28;;;5.00;100.00
70254;BME280;57649;42.968;1.608;2023-12-20T06:57:48;98031.63;;;4.86;100.00
70254;BME280;57649;42.968;1.608;2023-12-20T07:00:14;98035.09;;;4.87;100.00
70254;BME280;57649;42.968;1.608;2023-12-20T07:02:39;98029.38;;;5.04;100.00
70254;BME280;57649;42.968;1.608;2023-12-20T07:05:05;98046.97;;;5.05;100.00
70254;BME280;57649;42.968;1.608;2023-12-20T07:07:31;98052.06;;;5.08;100.00
70254;BME280;57649;42.968;1.608;2023-12-20T07:09:56;98053.97;;;5.06;100.00
70254;BME280;57649;42.968;1.608;2023-12-20T07:12:22;98063.16;;;5.13;100.00
70254;BME280;57649;42.968;1.608;2023-12-20T07:14:47;98050.25;;;5.20;100.00
70254;BME280;57649;42.968;1.608;2023-12-20T07:17:13;98044.09;;;5.31;100.00
70254;BME280;57649;42.968;1.608;2023-12-20T07:19:40;98042.06;;;5.46;100.00
70254;BME280;57649;42.968;1.608;2023-12-20T07:22:07;98051.13;;;5.88;100.00
70254;BME280;57649;42.968;1.608;2023-12-20T07:24:32;98056.56;;;5.75;100.00
70254;BME280;57649;42.968;1.608;2023-12-20T07:26:59;98054.00;;;5.85;100.00
70254;BME280;57649;42.968;1.608;2023-12-20T07:29:25;98045.75;;;7.08;100.00
70254;BME280;57649;42.968;1.608;2023-12-20T07:31:51;98051.66;;;6.90;100.00
70254;BME280;57649;42.968;1.608;2023-12-20T07:34:18;98063.22;;;7.22;100.00
70254;BME280;57649;42.968;1.608;2023-12-20T07:36:44;98058.78;;;7.32;100.00
70254;BME280;57649;42.968;1.608;2023-12-20T07:39:09;98060.81;;;7.19;100.00
70254;BME280;57649;42.968;1.608;2023-12-20T07:41:35;98070.34;;;7.42;100.00
70254;BME280;57649;42.968;1.608;2023-12-20T07:44:00;98086.28;;;7.63;100.00
70254;BME280;57649;42.968;1.608;2023-12-20T07:46:26;98090.16;;;7.28;100.00
70254;BME280;57649;42.968;1.608;2023-12-20T07:48:51;98102.41;;;7.31;100.00
70254;BME280;57649;42.968;1.608;2023-12-20T07:51:17;98105.53;;;7.67;100.00
70254;BME280;57649;42.968;1.608;2023-12-20T07:53:42;98116.69;;;7.82;100.00
70254;BME280;57649;42.968;1.608;2023-12-20T07:56:17;98117.97;;;7.87;100.00
70254;BME280;57649;42.968;1.608;2023-12-20T07:58:43;98125.50;;;8.13;100.00
70254;BME280;57649;42.968;1.608;2023-12-20T08:01:10;98117.09;;;8.08;100.00
70254;BME280;57649;42.968;1.608;2023-12-20T08:03:35;98129.88;;;8.14;100.00
70254;BME280;57649;42.968;1.608;2023-12-20T08:06:02;98129.03;;;8.14;100.00
70254;BME280;57649;42.968;1.608;2023-12-20T08:08:27;98125.09;;;8.08;100.00
70254;BME280;57649;42.968;1.608;2023-12-20T08:10:53;98143.59;;;8.09;100.00
70254;BME280;57649;42.968;1.608;2023-12-20T08:13:18;98149.09;;;8.08;100.00
70254;BME280;57649;42.968;1.608;2023-12-20T08:15:44;98141.13;;;8.18;100.00
70254;BME280;57649;42.968;1.608;2023-12-20T08:18:09;98147.56;;;8.15;100.00
70254;BME280;57649;42.968;1.608;2023-12-20T08:20:35;98149.50;;;8.13;100.00
70254;BME280;57649;42.968;1.608;2023-12-20T08:23:00;98152.63;;;8.18;100.00
70254;BME280;57649;42.968;1.608;2023-12-20T08:25:25;98161.88;;;8.14;100.00
70254;BME280;57649;42.968;1.608;2023-12-20T08:27:52;98172.41;;;8.16;100.00
70254;BME280;57649;42.968;1.608;2023-12-20T08:30:18;98165.25;;;8.16;100.00
70254;BME280;57649;42.968;1.608;2023-12-20T08:32:49;98184.91;;;8.15;100.00
70254;BME280;57649;42.968;1.608;2023-12-20T08:35:15;98171.13;;;8.10;100.00
70254;BME280;57649;42.968;1.608;2023-12-20T08:37:40;98185.72;;;8.06;100.00
70254;BME280;57649;42.968;1.608;2023-12-20T08:40:06;98200.28;;;8.02;100.00
70254;BME280;57649;42.968;1.608;2023-12-20T08:42:32;98201.97;;;8.03;100.00
70254;BME280;57649;42.968;1.608;2023-12-20T08:44:58;98213.59;;;8.02;100.00
70254;BME280;57649;42.968;1.608;2023-12-20T08:47:26;98222.84;;;7.98;100.00
70254;BME280;57649;42.968;1.608;2023-12-20T08:49:52;98241.84;;;7.83;100.00
70254;BME280;57649;42.968;1.608;2023-12-20T08:52:22;98259.13;;;7.89;100.00
70254;BME280;57649;42.968;1.608;2023-12-20T08:54:48;98265.00;;;7.83;100.00
70254;BME280;57649;42.968;1.608;2023-12-20T08:57:13;98282.34;;;7.77;100.00
70254;BME280;57649;42.968;1.608;2023-12-20T08:59:39;98287.97;;;7.63;100.00
70254;BME280;57649;42.968;1.608;2023-12-20T09:02:04;98287.44;;;7.48;100.00
70254;BME280;57649;42.968;1.608;2023-12-20T09:04:30;98289.56;;;7.33;100.00
70254;BME280;57649;42.968;1.608;2023-12-20T09:06:55;98299.75;;;7.28;100.00
70254;BME280;57649;42.968;1.608;2023-12-20T09:09:21;98300.09;;;7.23;100.00
70254;BME280;57649;42.968;1.608;2023-12-20T09:11:46;98317.53;;;7.16;100.00
70254;BME280;57649;42.968;1.608;2023-12-20T09:14:13;98320.09;;;7.18;100.00
70254;BME280;57649;42.968;1.608;2023-12-20T09:16:39;98325.16;;;7.21;100.00
70254;BME280;57649;42.968;1.608;2023-12-20T09:19:04;98328.19;;;7.27;100.00
70254;BME280;57649;42.968;1.608;2023-12-20T09:21:29;98337.38;;;7.23;100.00
70254;BME280;57649;42.968;1.608;2023-12-20T09:23:55;98347.19;;;7.23;100.00
70254;BME280;57649;42.968;1.608;2023-12-20T09:26:20;98346.34;;;7.22;100.00
70254;BME280;57649;42.968;1.608;2023-12-20T09:28:46;98352.31;;;7.15;100.00
70254;BME280;57649;42.968;1.608;2023-12-20T09:31:11;98370.69;;;7.18;100.00
70254;BME280;57649;42.968;1.608;2023-12-20T09:33:37;98372.28;;;7.09;100.00
70254;BME280;57649;42.968;1.608;2023-12-20T09:36:02;98374.56;;;7.02;100.00
70254;BME280;57649;42.968;1.608;2023-12-20T09:38:28;98381.97;;;6.99;100.00
70254;BME280;57649;42.968;1.608;2023-12-20T09:40:54;98378.56;;;6.97;100.00
70254;BME280;57649;42.968;1.608;2023-12-20T09:43:20;98393.44;;;6.99;100.00
70254;BME280;57649;42.968;1.608;2023-12-20T09:45:52;98402.88;;;7.03;100.00
70254;BME280;57649;42.968;1.608;2023-12-20T09:48:18;98398.44;;;6.92;100.00
70254;BME280;57649;42.968;1.608;2023-12-20T09:50:45;98402.44;;;6.87;100.00
70254;BME280;57649;42.968;1.608;2023-12-20T09:53:15;98400.00;;;6.84;100.00
70254;BME280;57649;42.968;1.608;2023-12-20T09:55:42;98400.44;;;6.78;100.00
70254;BME280;57649;42.968;1.608;2023-12-20T09:58:08;98387.16;;;6.78;100.00
70254;BME280;57649;42.968;1.608;2023-12-20T10:00:36;98397.94;;;6.76;100.00
70254;BME280;57649;42.968;1.608;2023-12-20T10:03:03;98397.56;;;6.69;100.00
70254;BME280;57649;42.968;1.608;2023-12-20T10:05:32;98392.72;;;6.74;100.00
70254;BME280;57649;42.968;1.608;2023-12-20T10:08:01;98403.00;;;6.79;100.00
70254;BME280;57649;42.968;1.608;2023-12-20T10:10:27;98399.00;;;6.85;100.00
70254;BME280;57649;42.968;1.608;2023-12-20T10:15:27;98394.78;;;6.93;100.00
70254;BME280;57649;42.968;1.608;2023-12-20T10:17:52;98383.28;;;6.93;100.00
70254;BME280;57649;42.968;1.608;2023-12-20T10:20:18;98385.59;;;7.09;100.00
70254;BME280;57649;42.968;1.608;2023-12-20T10:22:43;98385.94;;;7.16;100.00
70254;BME280;57649;42.968;1.608;2023-12-20T10:25:08;98388.88;;;7.12;100.00
70254;BME280;57649;42.968;1.608;2023-12-20T10:27:34;98381.94;;;7.21;100.00
70254;BME280;57649;42.968;1.608;2023-12-20T10:30:00;98375.41;;;7.14;100.00
70254;BME280;57649;42.968;1.608;2023-12-20T10:32:27;98393.47;;;7.22;100.00
70254;BME280;57649;42.968;1.608;2023-12-20T10:34:56;98391.75;;;7.09;100.00
70254;BME280;57649;42.968;1.608;2023-12-20T10:37:22;98383.28;;;7.16;100.00
70254;BME280;57649;42.968;1.608;2023-12-20T10:39:52;98387.75;;;7.15;100.00
70254;BME280;57649;42.968;1.608;2023-12-20T10:42:22;98385.22;;;7.13;100.00
70254;BME280;57649;42.968;1.608;2023-12-20T10:44:49;98379.06;;;7.13;100.00
70254;BME280;57649;42.968;1.608;2023-12-20T10:47:16;98382.94;;;7.09;100.00
70254;BME280;57649;42.968;1.608;2023-12-20T10:49:42;98378.56;;;7.08;100.00
70254;BME280;57649;42.968;1.608;2023-12-20T10:52:11;98375.06;;;7.07;100.00
70254;BME280;57649;42.968;1.608;2023-12-20T10:54:37;98354.22;;;7.01;100.00
70254;BME280;57649;42.968;1.608;2023-12-20T10:57:05;98344.69;;;6.99;100.00
70254;BME280;57649;42.968;1.608;2023-12-20T10:59:33;98348.31;;;6.98;100.00
70254;BME280;57649;42.968;1.608;2023-12-20T11:01:59;98344.19;;;7.05;100.00
70254;BME280;57649;42.968;1.608;2023-12-20T11:04:39;98330.75;;;7.06;100.00
70254;BME280;57649;42.968;1.608;2023-12-20T11:07:17;98341.06;;;7.11;100.00
70254;BME280;57649;42.968;1.608;2023-12-20T11:09:51;98346.13;;;7.14;100.00
70254;BME280;57649;42.968;1.608;2023-12-20T11:12:28;98334.84;;;7.10;100.00
70254;BME280;57649;42.968;1.608;2023-12-20T11:14:58;98334.63;;;7.13;100.00
70254;BME280;57649;42.968;1.608;2023-12-20T11:17:28;98327.84;;;7.21;100.00
70254;BME280;57649;42.968;1.608;2023-12-20T11:22:22;98323.72;;;7.28;100.00
70254;BME280;57649;42.968;1.608;2023-12-20T11:24:50;98327.81;;;7.32;100.00
70254;BME280;57649;42.968;1.608;2023-12-20T11:27:15;98322.13;;;7.37;100.00
70254;BME280;57649;42.968;1.608;2023-12-20T11:29:41;98324.75;;;7.48;100.00
70254;BME280;57649;42.968;1.608;2023-12-20T11:34:47;98323.44;;;7.42;100.00
70254;BME280;57649;42.968;1.608;2023-12-20T11:37:13;98308.34;;;7.52;100.00
70254;BME280;57649;42.968;1.608;2023-12-20T11:39:38;98313.19;;;7.59;100.00
70254;BME280;57649;42.968;1.608;2023-12-20T11:42:04;98306.03;;;7.59;100.00
70254;BME280;57649;42.968;1.608;2023-12-20T11:44:31;98310.50;;;7.70;100.00
70254;BME280;57649;42.968;1.608;2023-12-20T11:46:57;98310.09;;;7.75;100.00
70254;BME280;57649;42.968;1.608;2023-12-20T11:49:24;98309.38;;;7.72;100.00
70254;BME280;57649;42.968;1.608;2023-12-20T11:51:50;98316.28;;;7.75;100.00
70254;BME280;57649;42.968;1.608;2023-12-20T11:54:16;98317.09;;;7.55;100.00
70254;BME280;57649;42.968;1.608;2023-12-20T11:56:41;98319.03;;;7.52;100.00
70254;BME280;57649;42.968;1.608;2023-12-20T11:59:08;98318.91;;;7.54;100.00
70254;BME280;57649;42.968;1.608;2023-12-20T12:01:34;98320.50;;;7.45;100.00
70254;BME280;57649;42.968;1.608;2023-12-20T12:04:03;98328.56;;;7.66;100.00
70254;BME280;57649;42.968;1.608;2023-12-20T12:06:29;98319.97;;;7.63;100.00
70254;BME280;57649;42.968;1.608;2023-12-20T12:08:54;98320.56;;;7.66;100.00
70254;BME280;57649;42.968;1.608;2023-12-20T12:11:21;98320.81;;;7.63;100.00
70254;BME280;57649;42.968;1.608;2023-12-20T12:13:47;98321.41;;;7.67;100.00
70254;BME280;57649;42.968;1.608;2023-12-20T12:16:12;98325.00;;;7.77;100.00
70254;BME280;57649;42.968;1.608;2023-12-20T12:18:38;98320.84;;;7.52;100.00
70254;BME280;57649;42.968;1.608;2023-12-20T12:21:07;98309.19;;;7.64;100.00
70254;BME280;57649;42.968;1.608;2023-12-20T12:23:32;98286.56;;;7.80;100.00
70254;BME280;57649;42.968;1.608;2023-12-20T12:25:57;98304.38;;;8.00;100.00
70254;BME280;57649;42.968;1.608;2023-12-20T12:28:26;98293.03;;;8.19;100.00
70254;BME280;57649;42.968;1.608;2023-12-20T12:30:59;98286.16;;;8.47;100.00
70254;BME280;57649;42.968;1.608;2023-12-20T12:33:26;98289.84;;;8.46;100.00
70254;BME280;57649;42.968;1.608;2023-12-20T12:35:51;98293.66;;;8.33;100.00
70254;BME280;57649;42.968;1.608;2023-12-20T12:38:20;98291.13;;;8.52;100.00
70254;BME280;57649;42.968;1.608;2023-12-20T12:40:46;98272.06;;;8.36;100.00
70254;BME280;57649;42.968;1.608;2023-12-20T12:43:12;98280.63;;;8.39;100.00
70254;BME280;57649;42.968;1.608;2023-12-20T12:45:38;98266.72;;;8.36;100.00
70254;BME280;57649;42.968;1.608;2023-12-20T12:48:04;98271.63;;;8.61;100.00
70254;BME280;57649;42.968;1.608;2023-12-20T12:50:30;98275.03;;;8.73;100.00
70254;BME280;57649;42.968;1.608;2023-12-20T12:52:56;98269.69;;;8.73;100.00
70254;BME280;57649;42.968;1.608;2023-12-20T12:55:21;98281.28;;;8.93;100.00
70254;BME280;57649;42.968;1.608;2023-12-20T12:57:47;98279.63;;;9.02;100.00
70254;BME280;57649;42.968;1.608;2023-12-20T13:00:12;98268.97;;;9.12;100.00